Time;durP1;ratioP1;P1;durP2;ratioP2;P2;SDS_P1;SDS_P2;PMS_P1;PMS_P2;Temp;Humidity;BMP_temperature;BMP_pressure;BME280_temperature;BME280_humidity;BME280_pressure;Samples;Min_cycle;Max_cycle;Signal;HPM_P1;HPM_P2
2023/02/28 00:00:14;;;;;;;5.40;4.93;;;4.50;99.90;;;;;;4983902;28;20224;-76
2023/02/28 00:02:43;;;;;;;5.38;4.97;;;4.50;99.90;;;;;;5004209;28;20618;-75
2023/02/28 00:05:13;;;;;;;5.15;4.75;;;4.50;99.90;;;;;;5002004;28;20208;-75
2023/02/28 00:07:40;;;;;;;5.65;5.25;;;4.50;99.90;;;;;;5000772;28;20286;-75
2023/02/28 00:10:12;;;;;;;5.28;4.88;;;4.50;99.90;;;;;;5002006;28;20208;-75
2023/02/28 00:12:40;;;;;;;5.50;5.03;;;4.50;99.90;;;;;;5000612;28;20200;-74
2023/02/28 00:15:08;;;;;;;5.13;4.70;;;4.50;99.90;;;;;;5004567;28;20658;-75
2023/02/28 00:17:36;;;;;;;5.32;4.90;;;4.50;99.90;;;;;;5010638;28;20243;-75
2023/02/28 00:20:11;;;;;;;5.07;4.72;;;4.50;99.90;;;;;;5003061;28;20228;-76
2023/02/28 00:22:39;;;;;;;5.70;5.20;;;4.50;99.90;;;;;;5004427;28;20192;-76
2023/02/28 00:25:10;;;;;;;5.38;4.97;;;4.50;99.90;;;;;;4987993;28;20274;-76
2023/02/28 00:27:39;;;;;;;4.75;4.32;;;4.40;99.90;;;;;;5004831;28;20200;-76
2023/02/28 00:30:10;;;;;;;5.18;4.78;;;4.40;99.90;;;;;;5004544;28;20297;-77
2023/02/28 00:32:38;;;;;;;5.28;4.88;;;4.30;99.90;;;;;;5006246;28;20193;-77
2023/02/28 00:35:06;;;;;;;5.22;4.82;;;4.30;99.90;;;;;;5006508;28;20262;-76
2023/02/28 00:37:33;;;;;;;5.53;5.07;;;4.30;99.90;;;;;;4986338;28;20208;-77
2023/02/28 00:40:04;;;;;;;5.15;4.75;;;4.30;99.90;;;;;;5003126;28;20220;-72
2023/02/28 00:42:33;;;;;;;5.38;4.90;;;4.30;99.90;;;;;;5004140;28;20227;-76
2023/02/28 00:45:01;;;;;;;6.00;5.50;;;4.30;99.90;;;;;;5001972;28;20438;-75
2023/02/28 00:47:28;;;;;;;6.05;5.60;;;4.20;99.90;;;;;;5004307;28;20270;-75
2023/02/28 00:49:55;;;;;;;5.90;5.40;;;4.20;99.90;;;;;;5003659;28;20251;-75
2023/02/28 00:52:22;;;;;;;4.85;4.47;;;4.20;99.90;;;;;;5001358;28;20295;-73
2023/02/28 00:54:49;;;;;;;5.55;5.05;;;4.20;99.90;;;;;;4988416;28;20937;-75
2023/02/28 00:57:16;;;;;;;5.20;4.80;;;4.20;99.90;;;;;;5001001;28;20296;-75
2023/02/28 00:59:45;;;;;;;5.82;5.43;;;4.20;99.90;;;;;;5002841;28;21046;-75
2023/02/28 01:02:14;;;;;;;6.30;5.78;;;4.20;99.90;;;;;;5003003;28;20291;-74
2023/02/28 01:04:41;;;;;;;6.13;5.63;;;4.10;99.90;;;;;;5005100;28;20200;-74
2023/02/28 01:07:09;;;;;;;5.35;4.95;;;4.00;99.90;;;;;;5002967;28;20267;-74
2023/02/28 01:09:37;;;;;;;6.18;5.68;;;4.00;99.90;;;;;;5003625;28;20303;-74
2023/02/28 01:12:05;;;;;;;6.03;5.53;;;3.90;99.90;;;;;;5004922;28;20196;-75
2023/02/28 01:14:32;;;;;;;6.43;5.93;;;3.90;99.90;;;;;;5006454;28;20350;-75
2023/02/28 01:17:00;;;;;;;6.10;5.60;;;4.00;99.90;;;;;;5004600;28;20733;-75
2023/02/28 01:19:28;;;;;;;6.53;6.03;;;3.90;99.90;;;;;;5003209;28;20322;-75
2023/02/28 01:21:55;;;;;;;6.35;5.85;;;4.00;99.90;;;;;;5004272;28;20283;-74
2023/02/28 01:24:22;;;;;;;6.45;5.95;;;3.90;99.90;;;;;;5003256;28;20277;-74
2023/02/28 01:26:49;;;;;;;6.38;5.88;;;4.00;99.90;;;;;;5004480;28;20228;-74
2023/02/28 01:29:17;;;;;;;5.72;5.18;;;4.00;99.90;;;;;;5003491;28;20248;-74
2023/02/28 01:31:44;;;;;;;7.88;7.07;;;4.00;99.90;;;;;;5004325;28;20228;-74
2023/02/28 01:34:13;;;;;;;6.15;5.65;;;4.00;99.90;;;;;;4986519;28;20208;-74
2023/02/28 01:36:40;;;;;;;6.72;5.82;;;3.90;99.90;;;;;;5002966;28;20197;-74
2023/02/28 01:39:07;;;;;;;6.22;5.70;;;3.90;99.90;;;;;;5001363;28;20363;-74
2023/02/28 01:41:35;;;;;;;6.75;6.18;;;3.90;99.90;;;;;;5004880;28;20320;-74
2023/02/28 01:44:05;;;;;;;6.25;5.68;;;3.90;99.90;;;;;;5004049;28;20370;-74
2023/02/28 01:46:34;;;;;;;6.07;5.57;;;3.90;99.90;;;;;;5003038;28;20299;-76
2023/02/28 01:49:07;;;;;;;6.68;6.07;;;3.90;99.90;;;;;;4999721;28;20216;-75
2023/02/28 01:51:46;;;;;;;5.85;5.35;;;3.90;99.90;;;;;;5003286;28;20275;-75
2023/02/28 01:54:17;;;;;;;6.35;5.72;;;3.80;99.90;;;;;;5004207;28;20279;-75
2023/02/28 01:56:49;;;;;;;5.55;5.05;;;3.80;99.90;;;;;;5003499;28;20211;-75
2023/02/28 01:59:26;;;;;;;6.05;5.55;;;3.80;99.90;;;;;;5003645;28;20319;-75
2023/02/28 02:01:54;;;;;;;6.60;6.10;;;3.80;99.90;;;;;;5002750;28;20207;-75
2023/02/28 02:04:24;;;;;;;6.40;5.80;;;3.80;99.90;;;;;;5001829;28;21181;-74
2023/02/28 02:06:53;;;;;;;6.35;5.85;;;3.80;99.90;;;;;;5001798;28;20243;-76
2023/02/28 02:09:20;;;;;;;6.65;6.13;;;3.80;99.90;;;;;;4983728;28;20303;-75
2023/02/28 02:11:48;;;;;;;6.70;6.20;;;3.80;99.90;;;;;;5003714;28;20699;-76
2023/02/28 02:14:44;;;;;;;6.57;6.03;;;3.80;99.90;;;;;;5004866;28;20630;-75
2023/02/28 02:17:26;;;;;;;6.22;5.72;;;3.80;99.90;;;;;;4985131;28;20271;-75
2023/02/28 02:20:26;;;;;;;6.93;6.40;;;3.80;99.90;;;;;;5004174;28;20259;-74
2023/02/28 02:23:34;;;;;;;6.40;5.80;;;3.90;99.90;;;;;;5006045;28;20200;-74
2023/02/28 02:26:13;;;;;;;6.68;6.18;;;3.90;99.90;;;;;;5017509;28;20565;-74
2023/02/28 02:29:13;;;;;;;6.85;6.25;;;3.90;99.90;;;;;;5021452;28;20669;-75
2023/02/28 02:32:19;;;;;;;6.40;5.90;;;3.90;99.90;;;;;;4989195;28;20201;-76
2023/02/28 02:35:02;;;;;;;6.47;5.97;;;3.90;99.90;;;;;;4999079;28;20284;-76
2023/02/28 02:37:38;;;;;;;7.53;6.82;;;3.90;99.90;;;;;;4983547;28;20276;-76
2023/02/28 02:40:14;;;;;;;6.95;6.35;;;3.90;99.90;;;;;;5003621;28;20220;-76
2023/02/28 02:42:47;;;;;;;7.20;6.60;;;3.90;99.90;;;;;;4986697;28;20250;-75
2023/02/28 02:45:20;;;;;;;5.32;4.93;;;3.90;99.90;;;;;;4988360;28;20287;-76
2023/02/28 02:47:56;;;;;;;6.57;5.97;;;3.80;99.90;;;;;;5006587;28;20235;-77
2023/02/28 02:50:31;;;;;;;6.10;5.60;;;3.80;99.90;;;;;;5005873;28;21624;-76
2023/02/28 02:53:03;;;;;;;6.78;6.18;;;3.80;99.90;;;;;;5002898;28;20192;-76
2023/02/28 02:55:34;;;;;;;6.40;5.90;;;3.90;99.90;;;;;;5006877;28;20304;-76
2023/02/28 02:58:05;;;;;;;7.00;6.45;;;3.80;99.90;;;;;;5010309;28;20223;-76
2023/02/28 03:00:35;;;;;;;5.90;5.40;;;3.80;99.90;;;;;;5017941;28;20232;-73
2023/02/28 03:03:04;;;;;;;7.07;6.45;;;3.80;99.90;;;;;;5029521;28;20188;-73
2023/02/28 03:05:40;;;;;;;7.10;6.45;;;3.80;99.90;;;;;;5011842;28;20244;-75
2023/02/28 03:08:07;;;;;;;6.15;5.65;;;3.80;99.90;;;;;;5027458;28;20207;-74
2023/02/28 03:10:38;;;;;;;7.78;7.07;;;3.80;99.90;;;;;;5036602;28;20180;-75
2023/02/28 03:13:26;;;;;;;6.75;6.15;;;3.80;99.90;;;;;;5009825;28;20234;-75
2023/02/28 03:16:05;;;;;;;6.95;6.45;;;3.70;99.90;;;;;;5006564;28;20236;-78
2023/02/28 03:18:43;;;;;;;6.93;6.43;;;3.70;99.90;;;;;;5012301;28;20663;-76
2023/02/28 03:21:24;;;;;;;7.30;6.65;;;3.70;99.90;;;;;;5012101;28;20230;-75
2023/02/28 03:24:00;;;;;;;7.75;7.07;;;3.80;99.90;;;;;;4996737;28;20752;-75
2023/02/28 03:26:40;;;;;;;7.22;6.65;;;3.70;99.90;;;;;;5011817;28;20310;-75
2023/02/28 03:29:17;;;;;;;7.78;7.07;;;3.50;99.90;;;;;;5010407;28;20256;-75
2023/02/28 03:31:50;;;;;;;7.13;6.53;;;3.50;99.90;;;;;;5012845;28;20828;-75
2023/02/28 03:34:23;;;;;;;7.78;7.10;;;3.50;99.90;;;;;;4992549;28;20714;-75
2023/02/28 03:36:54;;;;;;;6.72;6.20;;;3.50;99.90;;;;;;4990687;28;20218;-75
2023/02/28 03:39:25;;;;;;;6.63;6.13;;;3.50;99.90;;;;;;5009325;28;20650;-75
2023/02/28 03:41:58;;;;;;;6.97;6.35;;;3.50;99.90;;;;;;5009469;28;20237;-76
2023/02/28 03:44:30;;;;;;;7.32;6.38;;;3.50;99.90;;;;;;5006260;28;20283;-76
2023/02/28 03:47:02;;;;;;;6.47;5.97;;;3.50;99.90;;;;;;5008682;28;20315;-76
2023/02/28 03:49:34;;;;;;;7.00;6.40;;;3.60;99.90;;;;;;5011938;28;20216;-76
2023/02/28 03:52:05;;;;;;;6.75;6.15;;;3.60;99.90;;;;;;4990975;28;20207;-76
2023/02/28 03:54:36;;;;;;;6.50;5.97;;;3.60;99.90;;;;;;5007582;28;20283;-76
2023/02/28 03:57:09;;;;;;;6.80;6.30;;;3.60;99.90;;;;;;5016466;28;20263;-76
2023/02/28 03:59:40;;;;;;;8.00;7.30;;;3.60;99.90;;;;;;4991859;28;20212;-76
2023/02/28 04:02:08;;;;;;;7.35;6.60;;;3.60;99.90;;;;;;4975394;28;20554;-75
2023/02/28 04:04:35;;;;;;;6.60;6.10;;;3.50;99.90;;;;;;5011666;28;20304;-75
2023/02/28 04:07:06;;;;;;;7.05;6.45;;;3.50;99.90;;;;;;5011323;28;20216;-75
2023/02/28 04:09:34;;;;;;;7.22;6.72;;;3.50;99.90;;;;;;4984710;28;20650;-74
2023/02/28 04:12:01;;;;;;;7.32;6.70;;;3.50;99.90;;;;;;4992509;28;20243;-75
2023/02/28 04:14:28;;;;;;;7.53;6.82;;;3.60;99.90;;;;;;5010859;28;20610;-75
2023/02/28 04:16:55;;;;;;;6.90;6.30;;;3.60;99.90;;;;;;5009021;28;20271;-75
2023/02/28 04:19:23;;;;;;;7.13;6.53;;;3.60;99.90;;;;;;4989486;28;20236;-75
2023/02/28 04:21:52;;;;;;;8.77;7.90;;;3.60;99.90;;;;;;5011305;28;20283;-75
2023/02/28 04:24:23;;;;;;;7.72;6.95;;;3.60;99.90;;;;;;5013294;28;20286;-75
2023/02/28 04:26:53;;;;;;;6.93;6.38;;;3.60;99.90;;;;;;5009010;28;20308;-75
2023/02/28 04:29:22;;;;;;;7.95;7.15;;;3.60;99.90;;;;;;4992583;28;20303;-74
2023/02/28 04:31:49;;;;;;;8.00;7.30;;;3.60;99.90;;;;;;5009249;28;20291;-76
2023/02/28 04:34:18;;;;;;;7.75;6.78;;;3.60;99.90;;;;;;5008194;28;20283;-76
2023/02/28 04:36:48;;;;;;;7.57;6.95;;;3.60;99.90;;;;;;4993415;28;20188;-76
2023/02/28 04:39:18;;;;;;;7.75;7.05;;;3.50;99.90;;;;;;4991062;28;20777;-76
2023/02/28 04:41:46;;;;;;;7.38;6.78;;;3.50;99.90;;;;;;4990726;28;22004;-76
2023/02/28 04:44:14;;;;;;;7.40;6.75;;;3.40;99.90;;;;;;5006694;28;20200;-76
2023/02/28 04:46:41;;;;;;;7.55;6.85;;;3.40;99.90;;;;;;4993986;28;20204;-76
2023/02/28 04:49:09;;;;;;;7.72;7.13;;;3.40;99.90;;;;;;5008770;28;20303;-76
2023/02/28 04:51:36;;;;;;;7.88;7.18;;;3.50;99.90;;;;;;4991193;28;20280;-76
2023/02/28 04:54:03;;;;;;;7.65;6.95;;;3.50;99.90;;;;;;5010426;28;20283;-76
2023/02/28 04:56:30;;;;;;;7.43;6.82;;;3.50;99.90;;;;;;5007885;28;20684;-76
2023/02/28 04:58:59;;;;;;;7.47;6.72;;;3.50;99.90;;;;;;5008751;28;20307;-76
2023/02/28 05:01:27;;;;;;;7.10;6.50;;;3.50;99.90;;;;;;5007521;28;20299;-76
2023/02/28 05:03:56;;;;;;;7.57;6.88;;;3.50;99.90;;;;;;5009538;28;20283;-76
2023/02/28 05:06:24;;;;;;;7.65;7.05;;;3.40;99.90;;;;;;5009212;28;20204;-74
2023/02/28 05:08:52;;;;;;;8.10;7.38;;;3.50;99.90;;;;;;5013044;28;20223;-75
2023/02/28 05:11:21;;;;;;;7.38;6.78;;;3.50;99.90;;;;;;5009402;28;20266;-74
2023/02/28 05:13:48;;;;;;;7.85;7.15;;;3.50;99.90;;;;;;5007600;28;20233;-74
2023/02/28 05:16:17;;;;;;;7.65;6.95;;;3.50;99.90;;;;;;4995498;28;20192;-74
2023/02/28 05:18:44;;;;;;;7.57;6.88;;;3.50;99.90;;;;;;5009253;28;20302;-75
2023/02/28 05:21:27;;;;;;;8.35;7.60;;;3.50;99.90;;;;;;5015509;28;20235;-74
2023/02/28 05:23:55;;;;;;;10.35;9.25;;;3.60;99.90;;;;;;5004346;28;20229;-75
2023/02/28 05:26:23;;;;;;;10.18;9.27;;;3.50;99.90;;;;;;5004734;28;20589;-75
2023/02/28 05:28:50;;;;;;;9.63;8.70;;;3.50;99.90;;;;;;5006789;28;20311;-74
2023/02/28 05:31:19;;;;;;;8.82;8.13;;;3.50;99.90;;;;;;5012152;28;20234;-74
2023/02/28 05:33:47;;;;;;;9.93;8.93;;;3.50;99.90;;;;;;4988946;28;20252;-74
2023/02/28 05:36:14;;;;;;;8.18;7.38;;;3.50;99.90;;;;;;5012917;28;20888;-74
2023/02/28 05:38:41;;;;;;;9.02;8.23;;;3.50;99.90;;;;;;5008641;28;20270;-74
2023/02/28 05:41:09;;;;;;;8.73;7.95;;;3.50;99.90;;;;;;4971971;28;20196;-74
2023/02/28 05:43:37;;;;;;;9.68;8.65;;;3.50;99.90;;;;;;5006033;28;20292;-75
2023/02/28 05:46:05;;;;;;;9.05;8.27;;;3.50;99.90;;;;;;5009031;28;20296;-75
2023/02/28 05:48:35;;;;;;;9.07;8.25;;;3.50;99.90;;;;;;5008861;28;20327;-75
2023/02/28 05:51:02;;;;;;;9.43;8.55;;;3.50;99.90;;;;;;5004873;28;20310;-75
2023/02/28 05:53:30;;;;;;;10.73;9.02;;;3.50;99.90;;;;;;5005059;28;20697;-74
2023/02/28 05:55:57;;;;;;;10.20;9.27;;;3.50;99.90;;;;;;4991322;28;20311;-74
2023/02/28 05:58:25;;;;;;;8.98;8.18;;;3.50;99.90;;;;;;4985760;28;20759;-74
2023/02/28 06:00:52;;;;;;;10.07;9.18;;;3.40;99.90;;;;;;5006025;28;20612;-74
2023/02/28 06:03:19;;;;;;;10.45;9.45;;;3.50;99.90;;;;;;5006650;28;20661;-73
2023/02/28 06:05:48;;;;;;;9.15;8.27;;;3.50;99.90;;;;;;5006407;28;20631;-74
2023/02/28 06:08:15;;;;;;;9.82;8.93;;;3.50;99.90;;;;;;5006493;28;20217;-74
2023/02/28 06:10:42;;;;;;;8.90;8.10;;;3.60;99.90;;;;;;4987704;28;20835;-74
2023/02/28 06:13:09;;;;;;;9.23;8.30;;;3.60;99.90;;;;;;4988203;28;20203;-74
2023/02/28 06:15:36;;;;;;;9.60;8.70;;;3.60;99.90;;;;;;5004485;28;20223;-74
2023/02/28 06:18:04;;;;;;;7.90;7.20;;;3.60;99.90;;;;;;5005758;28;20275;-75
2023/02/28 06:20:31;;;;;;;8.93;8.15;;;3.60;99.90;;;;;;5005194;28;20232;-75
2023/02/28 06:23:00;;;;;;;8.45;7.60;;;3.60;99.90;;;;;;5002871;28;20284;-75
2023/02/28 06:25:27;;;;;;;8.80;8.00;;;3.70;99.90;;;;;;5002286;28;20327;-76
2023/02/28 06:27:56;;;;;;;10.07;9.18;;;3.70;99.90;;;;;;5007128;28;20303;-75
2023/02/28 06:30:25;;;;;;;8.30;7.60;;;3.70;99.90;;;;;;5005813;28;20367;-75
2023/02/28 06:32:53;;;;;;;8.95;8.25;;;3.60;99.90;;;;;;4997822;28;20886;-75
2023/02/28 06:35:20;;;;;;;8.82;8.02;;;3.70;99.90;;;;;;5005237;28;20236;-75
2023/02/28 06:37:49;;;;;;;8.45;7.65;;;3.80;99.90;;;;;;5004699;28;20232;-77
2023/02/28 06:40:18;;;;;;;8.73;8.02;;;3.80;99.90;;;;;;5005633;28;20308;-76
2023/02/28 06:42:45;;;;;;;8.50;7.80;;;3.80;99.90;;;;;;5004384;28;20692;-76
2023/02/28 06:45:13;;;;;;;9.38;7.85;;;3.80;99.90;;;;;;5032708;28;20926;-75
2023/02/28 06:47:41;;;;;;;7.95;7.32;;;3.80;99.90;;;;;;5022200;28;20216;-77
2023/02/28 06:50:10;;;;;;;8.30;7.55;;;3.80;99.90;;;;;;5011834;28;20279;-77
2023/02/28 06:52:38;;;;;;;8.98;8.07;;;3.80;99.90;;;;;;5007912;28;20291;-77
2023/02/28 06:55:06;;;;;;;9.38;8.57;;;3.80;99.90;;;;;;5010625;28;20338;-77
2023/02/28 06:57:36;;;;;;;7.97;7.28;;;3.80;99.90;;;;;;5009941;28;20220;-77
2023/02/28 07:00:08;;;;;;;8.05;7.35;;;3.70;99.90;;;;;;5008783;28;20263;-77
2023/02/28 07:02:38;;;;;;;8.82;8.02;;;3.80;99.90;;;;;;4989523;28;20211;-76
2023/02/28 07:05:06;;;;;;;8.10;7.30;;;3.80;99.90;;;;;;5009826;28;20756;-77
2023/02/28 07:07:34;;;;;;;9.23;7.60;;;3.80;99.90;;;;;;4988521;28;20843;-76
2023/02/28 07:10:01;;;;;;;8.18;7.47;;;3.90;99.90;;;;;;4990204;28;20335;-77
2023/02/28 07:12:30;;;;;;;9.90;8.90;;;4.00;99.90;;;;;;5006375;28;20615;-77
2023/02/28 07:14:58;;;;;;;11.02;9.93;;;4.00;99.90;;;;;;4988578;28;20319;-76
2023/02/28 07:17:25;;;;;;;17.38;15.50;;;4.00;99.90;;;;;;5009116;28;20204;-78
2023/02/28 07:19:52;;;;;;;13.65;12.23;;;4.00;99.90;;;;;;5046586;28;20310;-76
2023/02/28 07:22:20;;;;;;;12.68;11.38;;;4.10;99.90;;;;;;5013235;28;20641;-76
2023/02/28 07:24:47;;;;;;;12.30;11.02;;;4.10;99.90;;;;;;5007607;28;20275;-75
2023/02/28 07:27:25;;;;;;;12.50;11.20;;;4.20;99.90;;;;;;5008182;28;20232;-76
2023/02/28 07:29:53;;;;;;;12.20;10.85;;;4.30;99.90;;;;;;5010348;28;20704;-76
2023/02/28 07:32:21;;;;;;;14.05;11.02;;;4.40;99.90;;;;;;5011350;28;20392;-75
2023/02/28 07:34:48;;;;;;;11.48;10.38;;;4.80;99.90;;;;;;5013333;28;20286;-76
2023/02/28 07:37:15;;;;;;;11.35;10.25;;;5.90;99.90;;;;;;5007502;28;20204;-77
2023/02/28 07:39:43;;;;;;;11.18;10.07;;;6.70;99.90;;;;;;5010585;28;20311;-77
2023/02/28 07:42:11;;;;;;;11.45;10.05;;;7.40;99.90;;;;;;5016301;28;20200;-80
2023/02/28 07:44:40;;;;;;;11.18;10.07;;;8.10;99.90;;;;;;5029746;28;20219;-80
2023/02/28 07:47:10;;;;;;;12.55;11.45;;;8.90;99.90;;;;;;5009494;28;20210;-82
2023/02/28 07:49:39;;;;;;;10.27;9.27;;;9.30;99.90;;;;;;5026016;28;20420;-84
2023/02/28 07:52:09;;;;;;;11.60;10.50;;;9.50;99.90;;;;;;5020638;28;20219;-82
2023/02/28 07:54:37;;;;;;;12.50;11.20;;;9.60;99.90;;;;;;5010709;28;20228;-81
2023/02/28 07:57:04;;;;;;;11.35;10.32;;;9.50;99.90;;;;;;5013679;28;20232;-81
2023/02/28 07:59:31;;;;;;;10.00;9.10;;;9.00;99.90;;;;;;5016754;28;20239;-82
2023/02/28 08:01:58;;;;;;;10.20;9.15;;;8.60;99.90;;;;;;5008740;28;20432;-80
2023/02/28 08:04:26;;;;;;;11.40;10.23;;;9.00;99.90;;;;;;5010214;28;20273;-78
2023/02/28 08:06:56;;;;;;;10.38;9.38;;;9.50;99.90;;;;;;5018006;28;20227;-77
2023/02/28 08:09:24;;;;;;;11.55;10.07;;;10.10;99.90;;;;;;5013410;28;20220;-80
2023/02/28 08:11:51;;;;;;;10.27;9.32;;;10.60;99.90;;;;;;5013646;28;20210;-79
2023/02/28 08:14:19;;;;;;;10.55;9.45;;;10.70;99.90;;;;;;5016235;28;20228;-79
2023/02/28 08:16:46;;;;;;;13.18;9.73;;;10.90;99.90;;;;;;5015763;28;20204;-78
2023/02/28 08:19:14;;;;;;;9.95;8.55;;;11.30;99.90;;;;;;5011287;28;20285;-79
2023/02/28 08:21:42;;;;;;;10.27;9.00;;;11.60;99.90;;;;;;5016495;28;20953;-78
2023/02/28 08:24:10;;;;;;;10.07;9.07;;;11.70;99.90;;;;;;5016105;28;20231;-79
2023/02/28 08:26:38;;;;;;;9.57;8.45;;;11.70;99.90;;;;;;5014868;28;20224;-81
2023/02/28 08:29:05;;;;;;;9.38;8.48;;;11.70;99.90;;;;;;5010333;28;20248;-78
2023/02/28 08:31:35;;;;;;;10.52;8.88;;;11.90;99.90;;;;;;4998608;28;20200;-77
2023/02/28 08:34:06;;;;;;;9.93;8.88;;;12.20;99.90;;;;;;5020187;28;20838;-79
2023/02/28 08:36:34;;;;;;;9.40;8.43;;;12.30;99.90;;;;;;5009729;28;20666;-77
2023/02/28 08:39:02;;;;;;;9.13;8.25;;;12.30;99.90;;;;;;5019469;28;20224;-80
2023/02/28 08:41:31;;;;;;;8.85;8.05;;;12.30;99.90;;;;;;5015648;28;20622;-78
2023/02/28 08:43:58;;;;;;;8.25;7.45;;;12.50;99.90;;;;;;5030881;28;20200;-80
2023/02/28 08:46:27;;;;;;;10.25;8.60;;;12.60;99.90;;;;;;5015284;28;20215;-80
2023/02/28 08:48:55;;;;;;;7.65;6.95;;;12.40;99.90;;;;;;5012983;28;20251;-78
2023/02/28 08:51:26;;;;;;;8.93;8.13;;;12.60;99.90;;;;;;5012473;28;20204;-80
2023/02/28 08:53:53;;;;;;;7.32;6.72;;;12.60;99.90;;;;;;5016872;28;20543;-80
2023/02/28 08:56:20;;;;;;;7.80;6.97;;;12.40;99.90;;;;;;5018182;28;20191;-79
2023/02/28 08:58:50;;;;;;;8.05;7.28;;;12.60;99.90;;;;;;5012696;28;20252;-81
2023/02/28 09:01:21;;;;;;;8.05;7.25;;;12.20;99.90;;;;;;5014938;28;20224;-81
2023/02/28 09:03:50;;;;;;;7.43;6.82;;;11.40;99.90;;;;;;5016004;28;20204;-80
2023/02/28 09:06:18;;;;;;;7.07;6.38;;;11.10;99.90;;;;;;5015994;28;20215;-81
2023/02/28 09:08:46;;;;;;;9.27;7.10;;;10.80;99.90;;;;;;5017169;28;20775;-81
2023/02/28 09:11:13;;;;;;;8.20;7.40;;;10.70;99.90;;;;;;5012252;28;20212;-80
2023/02/28 09:13:41;;;;;;;10.45;7.13;;;10.60;99.90;;;;;;5011670;28;20197;-79
2023/02/28 09:16:12;;;;;;;7.60;6.57;;;10.40;99.90;;;;;;5018261;28;20257;-78
2023/02/28 09:18:40;;;;;;;7.30;6.60;;;10.90;99.90;;;;;;5010564;28;20240;-79
2023/02/28 09:21:08;;;;;;;8.18;7.30;;;11.80;99.90;;;;;;5006957;28;20925;-78
2023/02/28 09:23:37;;;;;;;7.38;6.68;;;12.20;99.90;;;;;;4984431;28;20236;-79
2023/02/28 09:26:06;;;;;;;7.85;7.13;;;12.50;99.90;;;;;;5006947;28;20200;-80
2023/02/28 09:28:33;;;;;;;7.57;6.88;;;12.60;99.90;;;;;;5006677;28;20233;-81
2023/02/28 09:31:00;;;;;;;7.22;6.63;;;12.60;99.90;;;;;;5011407;28;20663;-79
2023/02/28 09:33:29;;;;;;;7.82;6.68;;;12.90;99.90;;;;;;5008511;28;20232;-82
2023/02/28 09:36:00;;;;;;;10.43;6.22;;;12.80;99.90;;;;;;5011306;28;20196;-80
2023/02/28 09:38:28;;;;;;;7.53;6.57;;;12.90;99.90;;;;;;5009914;28;20732;-82
2023/02/28 09:40:59;;;;;;;8.13;6.18;;;12.60;99.90;;;;;;5009239;28;20196;-78
2023/02/28 09:43:30;;;;;;;6.25;5.65;;;12.90;99.90;;;;;;5010049;28;20215;-77
2023/02/28 09:46:03;;;;;;;8.25;6.47;;;13.10;99.90;;;;;;5012086;28;20242;-79
2023/02/28 09:48:36;;;;;;;8.30;6.13;;;13.30;99.50;;;;;;5008132;28;20656;-79
2023/02/28 09:51:06;;;;;;;7.10;5.78;;;13.30;99.90;;;;;;5003065;28;20733;-80
2023/02/28 09:53:38;;;;;;;6.15;5.65;;;13.40;99.90;;;;;;5006323;28;20203;-78
2023/02/28 09:56:09;;;;;;;6.25;5.20;;;13.30;99.20;;;;;;5006538;28;20219;-79
2023/02/28 09:58:41;;;;;;;6.05;5.60;;;13.60;99.70;;;;;;5004531;28;20307;-77
2023/02/28 10:01:18;;;;;;;6.10;5.60;;;13.90;98.80;;;;;;5008775;28;20282;-77
2023/02/28 10:03:56;;;;;;;5.20;4.75;;;14.20;97.70;;;;;;5007262;28;20238;-77
2023/02/28 10:06:30;;;;;;;5.20;4.75;;;14.10;97.50;;;;;;5008689;28;20278;-77
2023/02/28 10:09:02;;;;;;;5.50;5.10;;;14.20;96.20;;;;;;5001457;28;20258;-77
2023/02/28 10:11:30;;;;;;;5.45;4.93;;;14.10;96.00;;;;;;5002227;28;20295;-78
2023/02/28 10:14:04;;;;;;;5.32;4.63;;;14.30;96.50;;;;;;5002063;28;20287;-76
2023/02/28 10:16:36;;;;;;;5.13;4.63;;;14.40;94.30;;;;;;5001401;28;20892;-74
2023/02/28 10:19:11;;;;;;;7.93;4.90;;;13.90;94.30;;;;;;5006896;28;20299;-75
2023/02/28 10:21:42;;;;;;;5.63;4.82;;;13.60;94.30;;;;;;5007550;28;20330;-76
2023/02/28 10:24:20;;;;;;;5.10;4.60;;;13.10;94.00;;;;;;5009145;28;20288;-76
2023/02/28 10:26:48;;;;;;;4.38;4.07;;;12.90;95.30;;;;;;5011648;28;20222;-78
2023/02/28 10:29:18;;;;;;;5.70;4.93;;;13.00;95.60;;;;;;5029553;28;21226;-76
2023/02/28 10:31:45;;;;;;;4.35;4.03;;;13.30;94.60;;;;;;5021332;28;20223;-76
2023/02/28 10:34:14;;;;;;;4.93;4.53;;;13.20;94.00;;;;;;5045961;28;20282;-76
2023/02/28 10:36:44;;;;;;;4.53;4.13;;;13.40;93.90;;;;;;5045374;28;20203;-76
2023/02/28 10:39:37;;;;;;;4.57;4.18;;;13.90;94.00;;;;;;5030607;28;20931;-76
2023/02/28 10:42:05;;;;;;;4.97;4.30;;;14.30;92.70;;;;;;5045676;28;20214;-75
2023/02/28 10:44:32;;;;;;;4.88;4.47;;;14.30;92.30;;;;;;5028750;28;20207;-75
2023/02/28 10:47:00;;;;;;;4.82;4.38;;;14.10;92.80;;;;;;5027987;28;20206;-76
2023/02/28 10:49:30;;;;;;;5.30;4.80;;;14.30;92.80;;;;;;5026419;28;20322;-75
2023/02/28 10:51:58;;;;;;;4.78;4.20;;;14.60;92.70;;;;;;5045835;28;20690;-76
2023/02/28 10:54:30;;;;;;;5.32;4.78;;;15.00;93.20;;;;;;5027049;28;20659;-78
2023/02/28 10:57:17;;;;;;;5.43;4.93;;;15.00;92.00;;;;;;5040245;28;20194;-75
2023/02/28 10:59:45;;;;;;;5.20;4.70;;;14.70;91.40;;;;;;5040717;28;20223;-76
2023/02/28 11:02:34;;;;;;;5.38;4.50;;;14.30;91.30;;;;;;5045923;28;20194;-75
2023/02/28 11:05:03;;;;;;;5.32;4.88;;;14.30;91.50;;;;;;5040759;28;20290;-76
2023/02/28 11:07:30;;;;;;;4.95;4.55;;;13.90;91.70;;;;;;5042926;28;20278;-76
2023/02/28 11:09:58;;;;;;;5.30;4.90;;;13.70;91.50;;;;;;5045496;28;20346;-77
2023/02/28 11:12:29;;;;;;;5.43;4.93;;;13.40;91.90;;;;;;5042191;28;20282;-76
2023/02/28 11:14:59;;;;;;;5.20;4.68;;;13.30;92.80;;;;;;5024942;28;20210;-76
2023/02/28 11:17:29;;;;;;;5.38;4.88;;;13.40;92.70;;;;;;5045985;28;20281;-76
2023/02/28 11:20:02;;;;;;;5.05;4.38;;;13.30;92.10;;;;;;5044648;28;20247;-77
2023/02/28 11:22:35;;;;;;;5.45;5.00;;;13.40;92.60;;;;;;5039444;28;20191;-76
2023/02/28 11:25:07;;;;;;;5.40;4.90;;;13.70;92.80;;;;;;5054858;28;20195;-75
2023/02/28 11:27:53;;;;;;;4.70;4.30;;;14.00;92.90;;;;;;5057878;28;20653;-76
2023/02/28 11:30:29;;;;;;;5.65;5.00;;;14.10;92.30;;;;;;5037638;28;20318;-76
2023/02/28 11:32:56;;;;;;;5.40;4.90;;;14.00;91.50;;;;;;5023629;28;20198;-78
2023/02/28 11:35:29;;;;;;;6.53;5.00;;;14.10;92.40;;;;;;5032806;28;20563;-78
2023/02/28 11:37:58;;;;;;;6.10;4.97;;;14.20;91.30;;;;;;5047848;28;20879;-78
2023/02/28 11:40:32;;;;;;;5.93;4.85;;;14.30;91.80;;;;;;5042262;28;20250;-78
2023/02/28 11:43:17;;;;;;;5.50;5.00;;;14.70;92.20;;;;;;5041408;28;20195;-78
2023/02/28 11:45:52;;;;;;;5.45;4.95;;;14.70;91.60;;;;;;5047224;28;20710;-78
2023/02/28 11:48:24;;;;;;;5.43;4.93;;;15.00;91.00;;;;;;5040550;28;20270;-78
2023/02/28 11:51:04;;;;;;;5.65;5.03;;;14.90;90.70;;;;;;5049517;28;20301;-78
2023/02/28 11:53:51;;;;;;;5.25;4.55;;;15.00;90.70;;;;;;5042477;28;20288;-75
2023/02/28 11:56:27;;;;;;;4.47;4.18;;;14.70;90.10;;;;;;5038049;28;20291;-75
2023/02/28 11:59:07;;;;;;;4.80;4.40;;;14.60;90.30;;;;;;5027599;28;20215;-75
2023/02/28 12:02:03;;;;;;;4.75;4.35;;;14.60;90.70;;;;;;5038763;28;20293;-74
2023/02/28 12:04:43;;;;;;;4.90;4.50;;;14.70;90.60;;;;;;5042284;28;20290;-77
2023/02/28 12:07:20;;;;;;;5.25;4.63;;;14.70;90.40;;;;;;5038111;28;20226;-77
2023/02/28 12:10:00;;;;;;;5.03;4.53;;;14.70;91.20;;;;;;5038918;28;20222;-77
2023/02/28 12:12:40;;;;;;;4.93;4.50;;;14.80;91.10;;;;;;5039092;28;20282;-77
2023/02/28 12:15:22;;;;;;;4.80;4.40;;;14.70;90.20;;;;;;5053868;28;20230;-82
2023/02/28 12:17:59;;;;;;;5.03;4.63;;;14.40;90.20;;;;;;5043392;28;20622;-83
2023/02/28 12:20:34;;;;;;;4.75;4.18;;;14.60;90.10;;;;;;5029608;28;20258;-83
2023/02/28 12:23:21;;;;;;;5.55;4.75;;;14.70;90.20;;;;;;5050325;28;20650;-84
2023/02/28 12:26:09;;;;;;;4.38;3.97;;;14.60;88.60;;;;;;5052086;28;20230;-81
2023/02/28 12:31:10;;;;;;;5.55;3.95;;;14.90;90.40;;;;;;5046746;28;20230;-76
2023/02/28 12:33:42;;;;;;;4.38;3.95;;;14.60;89.70;;;;;;5049600;28;20221;-77
2023/02/28 12:36:15;;;;;;;4.38;4.07;;;14.90;90.10;;;;;;5047358;28;20218;-76
2023/02/28 12:38:46;;;;;;;5.15;4.32;;;14.80;88.90;;;;;;5044941;28;20736;-77
2023/02/28 12:41:17;;;;;;;4.28;3.90;;;14.60;89.10;;;;;;5039784;28;20731;-77
2023/02/28 12:43:49;;;;;;;4.13;3.83;;;14.70;88.30;;;;;;5039611;28;20412;-78
2023/02/28 12:46:21;;;;;;;3.95;3.65;;;14.30;88.20;;;;;;5047000;28;20221;-77
2023/02/28 12:48:51;;;;;;;5.28;3.70;;;14.20;88.70;;;;;;5048794;28;20210;-76
2023/02/28 12:51:19;;;;;;;3.65;3.40;;;14.40;89.00;;;;;;5049438;28;20320;-77
2023/02/28 12:53:58;;;;;;;3.40;3.13;;;14.40;87.40;;;;;;5056239;28;20195;-79
2023/02/28 12:56:34;;;;;;;3.78;3.47;;;14.30;88.10;;;;;;5053543;28;20569;-76
2023/02/28 12:59:11;;;;;;;3.80;3.50;;;14.20;87.90;;;;;;5048363;28;20920;-75
2023/02/28 13:02:11;;;;;;;3.30;3.10;;;14.00;89.00;;;;;;5054401;28;20354;-77
2023/02/28 13:05:02;;;;;;;3.63;3.20;;;14.00;86.20;;;;;;5037211;28;20215;-78
2023/02/28 13:07:57;;;;;;;3.90;3.60;;;14.00;87.70;;;;;;5051670;28;20218;-79
2023/02/28 13:10:26;;;;;;;5.85;4.32;;;13.90;87.40;;;;;;5046116;28;20277;-77
2023/02/28 13:12:56;;;;;;;4.70;4.20;;;13.70;88.80;;;;;;5050984;28;20245;-76